Portada
METAR-TAF:

METAR-TAF

Aeropuertos :

Antioquía, Turquía

latitud: 36-21-46N, longitud: 36-16-56E, altitud: 1950 m

Observación

El informe se hizo hace 59 minutos, a las 12:50 UTC
Viento 4 kt del sur-suroeste
Temperatura 12°C
Humedad 82%
Presión 1019 hPa
Visibilidad 10 km o más
Cielo nuboso a una altura de 3500 ft

METAR: LTDA 061250Z 20004KT 9999 BKN035 12/09 Q1019 NOSIG

Hora: 16:49 (13:49 UTC)

Pronóstico

El informe se hizo hace 3 horas y 9 minutos, a las 10:40 UTC
Pronóstico válido del 06 a las 12 UTC al 06 a las 21 UTC
Viento 12 kt del norte-noreste
Visibilidad 10 km o más
Cielo nuboso a una altura de 3000 ft
Evolucionando progresivamente
del 06 a las 12 UTC al 06 a las 15 UTC
Viento 15 kt del norte-noreste con ráfagas de 25 kt

TAF: LTDA 061040Z 0612/0621 02012KT 9999 BKN030 BECMG 0612/0615 02015G25KT

Observaciones y pronósticos meteorológicos de más de 4000 aeropuertos (mensajes METAR y TAF).

Los puntos amarillos y rojos representan las estaciones disponibles.

Ponga el ratón en el punto deseado para ver el nombre de la estación.

Haga clic para ver las observaciones y los pronósticos meteorológicos.

Para cambiar el mapa : haga clic en los botones verdes con una cruz de color negro para hacer un zoom, en el botón verde con un guión para alejar o en las flechas verdes para mapas adyacentes.


METAR-TAF: